createdAt,value
2022-08-27T00:00:46.922Z,50.40
2022-08-27T00:03:14.567Z,50.40
2022-08-27T00:05:42.522Z,50.40
2022-08-27T00:08:13.012Z,50.50
2022-08-27T00:10:40.679Z,50.50
2022-08-27T00:13:07.481Z,50.40
2022-08-27T00:15:34.443Z,50.40
2022-08-27T00:18:01.316Z,50.50
2022-08-27T00:20:28.359Z,50.60
2022-08-27T00:22:55.797Z,50.50
2022-08-27T00:25:23.636Z,50.50
2022-08-27T00:30:21.611Z,50.50
2022-08-27T00:32:48.920Z,50.50
2022-08-27T00:35:16.293Z,50.50
2022-08-27T00:37:44.158Z,50.60
2022-08-27T00:40:16.379Z,50.50
2022-08-27T00:42:45.817Z,50.70
2022-08-27T00:45:15.928Z,50.60
2022-08-27T00:47:50.648Z,50.50
2022-08-27T00:50:24.734Z,50.50
2022-08-27T00:52:59.499Z,50.50
2022-08-27T00:55:35.681Z,50.60
2022-08-27T00:58:12.943Z,50.70
2022-08-27T01:00:40.388Z,50.60
2022-08-27T01:03:07.446Z,50.70
2022-08-27T01:05:36.168Z,50.80
2022-08-27T01:08:09.663Z,50.70
2022-08-27T01:10:38.392Z,50.70
2022-08-27T01:13:09.036Z,50.70
2022-08-27T01:15:36.541Z,50.70
2022-08-27T01:18:06.535Z,50.60
2022-08-27T01:21:00.258Z,50.60
2022-08-27T01:23:50.910Z,50.60
2022-08-27T01:26:17.946Z,50.60
2022-08-27T01:28:45.810Z,50.50
2022-08-27T01:33:41.048Z,50.70
2022-08-27T01:36:08.150Z,50.60
2022-08-27T01:41:03.503Z,50.70
2022-08-27T01:43:31.301Z,50.80
2022-08-27T01:48:25.283Z,50.80
2022-08-27T01:50:52.165Z,50.70
2022-08-27T01:53:22.613Z,50.90
2022-08-27T01:55:51.924Z,50.80
2022-08-27T01:58:22.314Z,50.80
2022-08-27T02:00:54.750Z,50.80
2022-08-27T02:03:24.206Z,50.70
2022-08-27T02:08:19.344Z,50.60
2022-08-27T02:10:47.576Z,50.70
2022-08-27T02:15:43.936Z,50.60
2022-08-27T02:18:12.045Z,50.60
2022-08-27T02:20:40.578Z,50.70
2022-08-27T02:23:08.806Z,50.60
2022-08-27T02:25:36.527Z,50.60
2022-08-27T02:28:05.318Z,50.60
2022-08-27T02:30:33.262Z,50.50
2022-08-27T02:33:02.526Z,50.60
2022-08-27T02:35:31.571Z,50.60
2022-08-27T02:37:58.531Z,50.60
2022-08-27T02:40:26.100Z,50.60
2022-08-27T02:42:53.193Z,50.70
2022-08-27T02:45:20.784Z,50.80
2022-08-27T02:47:48.454Z,50.80
2022-08-27T02:50:15.654Z,50.80
2022-08-27T02:52:45.331Z,50.80
2022-08-27T02:55:14.416Z,50.80
2022-08-27T02:57:45.069Z,50.90
2022-08-27T03:00:15.434Z,50.90
2022-08-27T03:02:42.322Z,50.90
2022-08-27T03:05:10.871Z,50.80
2022-08-27T03:07:37.818Z,51.00
2022-08-27T03:10:07.805Z,50.90
2022-08-27T03:12:36.303Z,50.90
2022-08-27T03:15:09.527Z,51.00
2022-08-27T03:17:55.489Z,51.00
2022-08-27T03:20:23.150Z,51.00
2022-08-27T03:22:49.989Z,51.00
2022-08-27T03:25:17.372Z,50.90
2022-08-27T03:27:45.307Z,51.00
2022-08-27T03:30:17.552Z,51.00
2022-08-27T03:32:44.699Z,51.00
2022-08-27T03:35:12.210Z,51.00
2022-08-27T03:37:39.814Z,51.00
2022-08-27T03:40:08.152Z,50.80
2022-08-27T03:42:36.466Z,50.90
2022-08-27T03:45:04.503Z,50.80
2022-08-27T03:47:32.250Z,50.90
2022-08-27T03:50:02.291Z,50.80
2022-08-27T03:52:29.544Z,50.80
2022-08-27T03:54:58.339Z,50.80
2022-08-27T03:57:25.703Z,50.80
2022-08-27T03:59:54.454Z,50.80
2022-08-27T04:02:21.611Z,50.80
2022-08-27T04:04:48.376Z,50.80
2022-08-27T04:07:15.098Z,50.80
2022-08-27T04:09:42.265Z,50.90
2022-08-27T04:12:09.311Z,50.80
2022-08-27T04:14:37.415Z,50.80
2022-08-27T04:17:04.339Z,50.90
2022-08-27T04:19:33.491Z,50.80
2022-08-27T04:22:05.793Z,50.90
2022-08-27T04:24:36.235Z,50.80
2022-08-27T04:27:04.505Z,50.80
2022-08-27T04:29:31.771Z,50.70
2022-08-27T04:31:59.375Z,50.70
2022-08-27T04:34:26.270Z,50.70
2022-08-27T04:36:56.643Z,50.70
2022-08-27T04:39:25.935Z,50.60
2022-08-27T04:41:56.076Z,50.70
2022-08-27T04:44:23.887Z,50.60
2022-08-27T04:46:56.041Z,50.50
2022-08-27T04:49:23.559Z,50.60
2022-08-27T04:51:50.480Z,50.50
2022-08-27T04:54:17.323Z,50.50
2022-08-27T04:56:47.180Z,50.50
2022-08-27T04:59:14.328Z,50.60
2022-08-27T05:01:44.893Z,50.50
2022-08-27T05:04:13.775Z,50.50
2022-08-27T05:09:08.158Z,50.60
2022-08-27T05:11:35.237Z,50.50
2022-08-27T05:14:04.329Z,50.50
2022-08-27T05:16:32.021Z,50.40
2022-08-27T05:18:59.906Z,50.40
2022-08-27T05:21:30.978Z,50.40
2022-08-27T05:24:00.005Z,50.30
2022-08-27T05:26:27.959Z,50.30
2022-08-27T05:28:55.395Z,50.40
2022-08-27T05:31:22.953Z,50.40
2022-08-27T05:33:49.864Z,50.40
2022-08-27T05:36:35.570Z,50.60
2022-08-27T05:39:05.723Z,50.50
2022-08-27T05:41:34.477Z,50.70
2022-08-27T05:44:30.240Z,50.60
2022-08-27T05:46:56.592Z,50.80
2022-08-27T05:49:23.400Z,51.00
2022-08-27T05:51:50.748Z,51.20
2022-08-27T05:54:19.449Z,51.10
2022-08-27T05:56:47.463Z,51.20
2022-08-27T05:59:34.780Z,51.20
2022-08-27T06:02:02.814Z,51.20
2022-08-27T06:04:30.081Z,51.10
2022-08-27T06:06:57.159Z,52.10
2022-08-27T06:09:28.772Z,50.70
2022-08-27T06:12:00.205Z,50.50
2022-08-27T06:14:27.965Z,50.40
2022-08-27T06:16:55.998Z,51.50
2022-08-27T06:19:23.351Z,50.70
2022-08-27T06:22:00.307Z,50.90
2022-08-27T06:24:28.868Z,50.90
2022-08-27T06:26:57.368Z,51.10
2022-08-27T06:29:25.073Z,50.90
2022-08-27T06:31:52.913Z,50.80
2022-08-27T06:34:19.703Z,50.60
2022-08-27T06:39:15.512Z,50.70
2022-08-27T06:41:44.731Z,50.90
2022-08-27T06:44:14.932Z,51.50
2022-08-27T06:46:43.033Z,52.40
2022-08-27T06:49:10.552Z,53.80
2022-08-27T06:51:39.305Z,53.70
2022-08-27T06:54:08.836Z,53.80
2022-08-27T06:56:36.327Z,54.00
2022-08-27T06:59:11.903Z,54.00
2022-08-27T07:01:42.477Z,54.00
2022-08-27T07:04:13.993Z,54.00
2022-08-27T07:06:41.176Z,53.90
2022-08-27T07:09:09.367Z,53.80
2022-08-27T07:11:36.761Z,54.40
2022-08-27T07:14:04.119Z,53.60
2022-08-27T07:16:31.115Z,53.40
2022-08-27T07:19:02.426Z,53.20
2022-08-27T07:21:32.297Z,55.60
2022-08-27T07:24:03.516Z,53.10
2022-08-27T07:26:32.934Z,53.00
2022-08-27T07:29:00.277Z,52.90
2022-08-27T07:31:27.906Z,52.90
2022-08-27T07:33:54.974Z,52.80
2022-08-27T07:36:22.853Z,53.50
2022-08-27T07:38:59.209Z,52.80
2022-08-27T07:41:31.333Z,52.80
2022-08-27T07:44:21.032Z,52.80
2022-08-27T07:46:54.462Z,53.50
2022-08-27T07:49:22.543Z,53.50
2022-08-27T07:51:50.052Z,52.60
2022-08-27T07:54:17.195Z,52.70
2022-08-27T07:56:44.342Z,52.60
2022-08-27T07:59:26.283Z,53.50
2022-08-27T08:04:22.671Z,52.80
2022-08-27T08:06:50.804Z,52.70
2022-08-27T08:09:17.691Z,52.80
2022-08-27T08:11:44.837Z,52.80
2022-08-27T08:14:11.762Z,52.90
2022-08-27T08:16:38.597Z,52.80
2022-08-27T08:19:05.481Z,53.00
2022-08-27T08:21:33.411Z,53.10
2022-08-27T08:24:02.002Z,53.10
2022-08-27T08:26:29.230Z,53.20
2022-08-27T08:28:56.132Z,53.20
2022-08-27T08:31:23.983Z,53.30
2022-08-27T08:33:51.019Z,53.40
2022-08-27T08:36:18.056Z,53.40
2022-08-27T08:38:47.254Z,53.50
2022-08-27T08:41:35.949Z,53.50
2022-08-27T08:44:31.861Z,53.70
2022-08-27T08:47:00.927Z,53.60
2022-08-27T08:49:44.858Z,53.70
2022-08-27T08:52:43.221Z,53.70
2022-08-27T08:55:17.455Z,54.30
2022-08-27T08:58:11.721Z,53.70
2022-08-27T09:00:42.034Z,53.60
2022-08-27T09:03:12.725Z,53.70
2022-08-27T09:05:49.287Z,54.50
2022-08-27T09:08:36.452Z,53.80
2022-08-27T09:11:14.267Z,54.40
2022-08-27T09:13:47.596Z,54.50
2022-08-27T09:16:14.579Z,53.90
2022-08-27T09:18:41.998Z,54.00
2022-08-27T09:21:27.799Z,53.80
2022-08-27T09:26:27.932Z,53.90
2022-08-27T09:29:15.860Z,53.90
2022-08-27T09:34:22.374Z,53.90
2022-08-27T09:36:54.433Z,53.90
2022-08-27T09:39:48.430Z,53.90
2022-08-27T09:42:37.502Z,54.00
2022-08-27T09:45:11.888Z,53.90
2022-08-27T09:47:54.518Z,54.00
2022-08-27T09:50:34.918Z,53.90
2022-08-27T09:53:01.816Z,53.90
2022-08-27T09:55:46.662Z,53.90
2022-08-27T09:58:25.739Z,53.80
2022-08-27T10:01:15.707Z,54.50
2022-08-27T10:03:43.414Z,53.70
2022-08-27T10:06:11.123Z,53.80
2022-08-27T10:08:41.927Z,53.80
2022-08-27T10:11:18.399Z,53.70
2022-08-27T10:13:52.134Z,53.70
2022-08-27T10:16:40.747Z,54.60
2022-08-27T10:19:25.700Z,54.30
2022-08-27T10:22:00.733Z,53.80
2022-08-27T10:24:40.170Z,54.40
2022-08-27T10:27:09.766Z,54.90
2022-08-27T10:30:02.683Z,53.60
2022-08-27T10:33:06.210Z,53.60
2022-08-27T10:35:46.847Z,53.50
2022-08-27T10:38:45.108Z,53.50
2022-08-27T10:41:29.045Z,54.10
2022-08-27T10:44:19.188Z,53.80
2022-08-27T10:47:14.079Z,53.30
2022-08-27T10:49:54.963Z,53.30
2022-08-27T10:52:39.722Z,54.00
2022-08-27T10:55:26.713Z,53.30
2022-08-27T10:58:08.675Z,55.20
2022-08-27T11:01:03.143Z,53.10
2022-08-27T11:03:54.504Z,53.90
2022-08-27T11:06:32.766Z,55.20
2022-08-27T11:09:07.795Z,53.00
2022-08-27T11:12:13.938Z,53.70
2022-08-27T11:14:54.368Z,53.00
2022-08-27T11:17:36.737Z,52.80
2022-08-27T11:20:12.466Z,53.40
2022-08-27T11:22:47.795Z,52.60
2022-08-27T11:25:52.532Z,52.50
2022-08-27T11:28:29.551Z,53.10
2022-08-27T11:31:03.681Z,52.40
2022-08-27T11:33:48.266Z,52.40
2022-08-27T11:37:11.891Z,52.50
2022-08-27T11:39:57.633Z,52.30
2022-08-27T11:42:48.153Z,52.30
2022-08-27T11:46:12.976Z,52.30
2022-08-27T11:48:55.546Z,52.30
2022-08-27T11:51:34.198Z,52.30
2022-08-27T11:54:07.378Z,52.90
2022-08-27T11:56:37.258Z,54.30
2022-08-27T11:59:23.035Z,52.10
2022-08-27T12:01:55.190Z,52.00
2022-08-27T12:04:36.230Z,52.10
2022-08-27T12:07:16.767Z,52.80
2022-08-27T12:09:52.350Z,52.00
2022-08-27T12:12:33.274Z,52.50
2022-08-27T12:15:10.375Z,51.90
2022-08-27T12:18:08.626Z,51.90
2022-08-27T12:21:07.632Z,52.50
2022-08-27T12:23:46.868Z,52.40
2022-08-27T12:26:25.643Z,52.30
2022-08-27T12:29:16.391Z,52.30
2022-08-27T12:31:48.546Z,51.70
2022-08-27T12:34:19.663Z,51.70
2022-08-27T12:36:53.422Z,51.70
2022-08-27T12:39:27.634Z,51.70
2022-08-27T12:41:55.837Z,51.60
2022-08-27T12:44:28.566Z,51.60
2022-08-27T12:47:03.256Z,51.60
2022-08-27T12:49:42.030Z,52.20
2022-08-27T12:52:33.193Z,51.50
2022-08-27T12:55:18.745Z,52.00
2022-08-27T12:58:17.511Z,51.40
2022-08-27T13:01:21.086Z,51.40
2022-08-27T13:03:54.199Z,51.40
2022-08-27T13:08:57.446Z,51.40
2022-08-27T13:11:33.485Z,51.40
2022-08-27T13:14:21.508Z,51.30
2022-08-27T13:16:54.562Z,51.40
2022-08-27T13:19:33.448Z,51.30
2022-08-27T13:22:01.445Z,51.30
2022-08-27T13:24:49.308Z,51.40
2022-08-27T13:27:16.247Z,51.30
2022-08-27T13:29:43.894Z,51.30
2022-08-27T13:32:14.106Z,51.20
2022-08-27T13:34:41.702Z,51.30
2022-08-27T13:37:24.616Z,51.20
2022-08-27T13:39:57.614Z,51.20
2022-08-27T13:42:26.063Z,51.10
2022-08-27T13:44:56.435Z,52.80
2022-08-27T13:47:28.049Z,51.10
2022-08-27T13:50:13.139Z,51.90
2022-08-27T13:53:01.664Z,51.70
2022-08-27T13:55:30.126Z,51.10
2022-08-27T13:58:00.773Z,51.10
2022-08-27T14:00:33.334Z,51.10
2022-08-27T14:03:02.124Z,51.10
2022-08-27T14:05:33.784Z,52.30
2022-08-27T14:08:12.335Z,51.10
2022-08-27T14:10:43.850Z,51.20
2022-08-27T14:13:20.878Z,51.80
2022-08-27T14:15:54.326Z,51.80
2022-08-27T14:18:47.983Z,51.20
2022-08-27T14:21:13.590Z,51.70
2022-08-27T14:23:41.102Z,51.10
2022-08-27T14:26:08.643Z,51.00
2022-08-27T14:28:35.524Z,51.00
2022-08-27T14:31:02.691Z,51.90
2022-08-27T14:33:29.899Z,51.00
2022-08-27T14:35:56.662Z,51.20
2022-08-27T14:38:26.771Z,51.20
2022-08-27T14:40:54.678Z,51.00
2022-08-27T14:43:22.933Z,51.00
2022-08-27T14:45:51.795Z,52.00
2022-08-27T14:48:21.834Z,51.00
2022-08-27T14:50:56.599Z,51.00
2022-08-27T14:53:24.298Z,51.00
2022-08-27T14:55:52.190Z,50.90
2022-08-27T14:58:19.548Z,50.90
2022-08-27T15:00:46.822Z,50.90
2022-08-27T15:03:13.758Z,50.90
2022-08-27T15:05:40.667Z,50.90
2022-08-27T15:08:13.362Z,51.00
2022-08-27T15:10:40.665Z,50.90
2022-08-27T15:13:09.437Z,51.10
2022-08-27T15:15:36.299Z,51.00
2022-08-27T15:18:03.367Z,50.90
2022-08-27T15:20:30.538Z,50.90
2022-08-27T15:22:58.829Z,50.90
2022-08-27T15:25:25.934Z,50.90
2022-08-27T15:27:52.758Z,50.90
2022-08-27T15:30:26.149Z,50.90
2022-08-27T15:32:53.491Z,50.90
2022-08-27T15:35:25.823Z,50.90
2022-08-27T15:37:54.982Z,50.80
2022-08-27T15:40:24.114Z,51.60
2022-08-27T15:42:57.159Z,52.70
2022-08-27T15:45:25.714Z,50.90
2022-08-27T15:47:55.451Z,50.80
2022-08-27T15:50:22.450Z,50.80
2022-08-27T15:52:53.435Z,50.40
2022-08-27T15:55:23.730Z,50.70
2022-08-27T15:57:50.744Z,50.80
2022-08-27T16:00:20.180Z,50.70
2022-08-27T16:02:47.633Z,50.80
2022-08-27T16:05:16.730Z,50.80
2022-08-27T16:07:44.486Z,50.80
2022-08-27T16:10:13.347Z,51.70
2022-08-27T16:12:40.388Z,50.80
2022-08-27T16:15:07.945Z,50.80
2022-08-27T16:17:35.831Z,50.70
2022-08-27T16:20:03.938Z,50.80
2022-08-27T16:22:30.862Z,50.80
2022-08-27T16:24:57.780Z,50.80
2022-08-27T16:27:24.621Z,50.90
2022-08-27T16:29:52.450Z,50.90
2022-08-27T16:32:19.527Z,50.90
2022-08-27T16:34:55.369Z,51.00
2022-08-27T16:37:24.420Z,50.90
2022-08-27T16:39:51.492Z,50.90
2022-08-27T16:42:18.315Z,50.90
2022-08-27T16:44:45.559Z,51.00
2022-08-27T16:47:12.822Z,50.90
2022-08-27T16:49:57.999Z,50.90
2022-08-27T16:52:24.967Z,50.90
2022-08-27T16:54:52.215Z,50.90
2022-08-27T16:57:19.106Z,50.90
2022-08-27T16:59:45.984Z,50.80
2022-08-27T17:02:34.954Z,50.80
2022-08-27T17:05:23.805Z,50.90
2022-08-27T17:07:50.036Z,50.80
2022-08-27T17:10:20.067Z,50.90
2022-08-27T17:12:47.872Z,50.70
2022-08-27T17:15:16.516Z,50.70
2022-08-27T17:17:43.396Z,50.80
2022-08-27T17:20:10.841Z,50.70
2022-08-27T17:22:38.035Z,50.70
2022-08-27T17:25:05.857Z,50.70
2022-08-27T17:27:32.633Z,50.60
2022-08-27T17:29:59.688Z,50.50
2022-08-27T17:32:27.560Z,50.60
2022-08-27T17:34:54.556Z,50.60
2022-08-27T17:37:22.517Z,50.70
2022-08-27T17:39:49.335Z,50.70
2022-08-27T17:42:16.438Z,50.70
2022-08-27T17:44:43.230Z,50.60
2022-08-27T17:47:10.227Z,50.70
2022-08-27T17:49:37.504Z,50.70
2022-08-27T17:52:09.636Z,50.80
2022-08-27T17:54:43.232Z,51.50
2022-08-27T17:57:20.659Z,51.30
2022-08-27T17:59:48.345Z,50.80
2022-08-27T18:02:39.000Z,51.50
2022-08-27T18:05:10.161Z,50.90
2022-08-27T18:07:39.945Z,51.70
2022-08-27T18:10:08.555Z,50.90
2022-08-27T18:12:35.973Z,51.60
2022-08-27T18:15:02.673Z,51.00
2022-08-27T18:17:30.314Z,51.10
2022-08-27T18:22:26.960Z,51.00
2022-08-27T18:24:54.418Z,51.00
2022-08-27T18:27:25.424Z,51.00
2022-08-27T18:29:52.275Z,51.00
2022-08-27T18:32:24.402Z,51.10
2022-08-27T18:34:51.707Z,51.20
2022-08-27T18:37:18.638Z,51.40
2022-08-27T18:42:14.610Z,51.20
2022-08-27T18:44:45.614Z,51.20
2022-08-27T18:47:13.120Z,51.40
2022-08-27T18:49:40.179Z,51.30
2022-08-27T18:52:08.803Z,51.40
2022-08-27T18:54:35.642Z,51.50
2022-08-27T18:57:02.446Z,51.40
2022-08-27T18:59:29.298Z,51.50
2022-08-27T19:01:56.633Z,51.40
2022-08-27T19:04:24.458Z,51.50
2022-08-27T19:06:51.521Z,51.40
2022-08-27T19:09:19.079Z,51.40
2022-08-27T19:11:46.002Z,51.50
2022-08-27T19:16:50.595Z,51.50
2022-08-27T19:19:18.197Z,52.40
2022-08-27T19:21:50.718Z,51.60
2022-08-27T19:24:19.810Z,51.50
2022-08-27T19:26:47.067Z,51.60
2022-08-27T19:29:13.971Z,51.60
2022-08-27T19:31:41.854Z,51.60
2022-08-27T19:34:09.086Z,51.50
2022-08-27T19:36:40.688Z,51.70
2022-08-27T19:39:10.002Z,51.70
2022-08-27T19:41:36.987Z,51.70
2022-08-27T19:46:32.750Z,51.70
2022-08-27T19:48:59.663Z,51.70
2022-08-27T19:51:26.584Z,51.80
2022-08-27T19:53:53.436Z,51.90
2022-08-27T19:56:20.907Z,51.80
2022-08-27T19:58:47.743Z,51.80
2022-08-27T20:01:14.763Z,51.90
2022-08-27T20:03:42.257Z,51.80
2022-08-27T20:06:09.092Z,51.80
2022-08-27T20:08:35.871Z,51.80
2022-08-27T20:11:02.747Z,51.80
2022-08-27T20:13:33.122Z,51.80
2022-08-27T20:16:02.341Z,51.80
2022-08-27T20:18:29.891Z,51.90
2022-08-27T20:20:56.715Z,51.90
2022-08-27T20:23:23.583Z,51.90
2022-08-27T20:25:57.830Z,51.90
2022-08-27T20:28:39.238Z,51.80
2022-08-27T20:31:08.209Z,51.80
2022-08-27T20:33:35.132Z,52.80
2022-08-27T20:36:02.625Z,52.20
2022-08-27T20:38:30.503Z,51.80
2022-08-27T20:40:57.557Z,51.80
2022-08-27T20:43:24.333Z,51.80
2022-08-27T20:45:51.237Z,52.00
2022-08-27T20:48:18.886Z,52.00
2022-08-27T20:50:45.664Z,51.90
2022-08-27T20:53:12.880Z,51.90
2022-08-27T20:55:40.326Z,51.90
2022-08-27T20:58:26.554Z,51.90
2022-08-27T21:00:55.383Z,51.90
2022-08-27T21:03:23.435Z,51.90
2022-08-27T21:05:50.255Z,51.80
2022-08-27T21:08:19.435Z,51.90
2022-08-27T21:10:49.707Z,51.90
2022-08-27T21:13:17.635Z,51.90
2022-08-27T21:15:44.439Z,51.90
2022-08-27T21:18:11.373Z,51.90
2022-08-27T21:20:38.661Z,51.90
2022-08-27T21:23:05.524Z,51.80
2022-08-27T21:25:32.335Z,51.90
2022-08-27T21:28:00.308Z,52.00
2022-08-27T21:30:27.558Z,51.90
2022-08-27T21:32:55.874Z,52.00
2022-08-27T21:35:27.274Z,51.90
2022-08-27T21:37:56.177Z,52.00
2022-08-27T21:40:25.058Z,51.90
2022-08-27T21:42:53.731Z,51.90
2022-08-27T21:45:21.226Z,52.00
2022-08-27T21:47:48.227Z,51.90
2022-08-27T21:50:15.111Z,52.00
2022-08-27T21:52:42.049Z,52.00
2022-08-27T21:55:10.174Z,52.00
2022-08-27T21:57:37.066Z,52.70
2022-08-27T22:00:16.782Z,51.90
2022-08-27T22:02:43.607Z,52.00
2022-08-27T22:05:10.460Z,52.00
2022-08-27T22:07:37.470Z,51.90
2022-08-27T22:10:05.763Z,52.00
2022-08-27T22:12:32.727Z,52.00
2022-08-27T22:14:59.610Z,51.90
2022-08-27T22:17:26.630Z,51.90
2022-08-27T22:19:54.467Z,52.00
2022-08-27T22:22:21.323Z,52.10
2022-08-27T22:24:48.385Z,51.90
2022-08-27T22:27:15.318Z,51.90
2022-08-27T22:29:42.071Z,51.90
2022-08-27T22:32:08.927Z,51.90
2022-08-27T22:34:36.310Z,51.90
2022-08-27T22:37:04.360Z,51.90
2022-08-27T22:39:31.383Z,51.80
2022-08-27T22:41:58.463Z,51.80
2022-08-27T22:44:29.162Z,51.90
2022-08-27T22:46:56.576Z,51.70
2022-08-27T22:49:23.564Z,51.80
2022-08-27T22:51:50.391Z,51.80
2022-08-27T22:54:17.987Z,51.90
2022-08-27T22:56:44.771Z,51.90
2022-08-27T22:59:11.664Z,51.80
2022-08-27T23:01:38.781Z,51.90
2022-08-27T23:04:06.620Z,51.80
2022-08-27T23:06:34.440Z,51.80
2022-08-27T23:09:01.888Z,51.90
2022-08-27T23:11:31.650Z,51.80
2022-08-27T23:13:59.538Z,51.80
2022-08-27T23:16:27.099Z,51.80
2022-08-27T23:18:54.113Z,51.70
2022-08-27T23:21:21.428Z,51.80
2022-08-27T23:23:48.295Z,51.90
2022-08-27T23:26:33.788Z,51.80
2022-08-27T23:29:00.671Z,51.80
2022-08-27T23:31:27.592Z,51.80
2022-08-27T23:33:55.992Z,51.80
2022-08-27T23:36:23.131Z,51.90
2022-08-27T23:38:49.994Z,51.80
2022-08-27T23:41:16.873Z,51.90
2022-08-27T23:43:44.901Z,51.80
2022-08-27T23:46:12.029Z,51.80
2022-08-27T23:48:39.351Z,51.80
2022-08-27T23:51:07.565Z,51.90
2022-08-27T23:53:37.206Z,51.90
2022-08-27T23:56:04.862Z,52.50
2022-08-27T23:58:32.611Z,52.00
